createdAt,value
2022-11-26T00:02:32.048Z,10.43
2022-11-26T00:05:00.429Z,15.15
2022-11-26T00:07:30.964Z,17.58
2022-11-26T00:09:59.855Z,19.48
2022-11-26T00:12:31.429Z,15.68
2022-11-26T00:15:24.363Z,18.33
2022-11-26T00:17:55.302Z,12.30
2022-11-26T00:20:25.800Z,13.80
2022-11-26T00:22:55.189Z,12.70
2022-11-26T00:25:40.934Z,18.52
2022-11-26T00:28:36.932Z,15.80
2022-11-26T00:31:11.606Z,18.27
2022-11-26T00:33:41.041Z,12.30
2022-11-26T00:36:19.286Z,14.00
2022-11-26T00:38:50.495Z,17.83
2022-11-26T00:41:23.317Z,17.90
2022-11-26T00:43:52.007Z,19.23
2022-11-26T00:46:21.789Z,17.95
2022-11-26T00:48:50.138Z,18.05
2022-11-26T00:53:51.579Z,22.42
2022-11-26T00:56:21.232Z,12.18
2022-11-26T00:58:50.059Z,11.90
2022-11-26T01:01:26.327Z,27.70
2022-11-26T01:05:59.943Z,17.00
2022-11-26T01:08:36.051Z,15.88
2022-11-26T01:11:05.531Z,9.10
2022-11-26T01:14:02.767Z,18.75
2022-11-26T01:16:40.599Z,13.10
2022-11-26T01:19:16.593Z,14.27
2022-11-26T01:21:46.138Z,12.82
2022-11-26T01:24:18.952Z,19.20
2022-11-26T01:26:55.537Z,15.48
2022-11-26T01:29:23.699Z,17.15
2022-11-26T01:31:52.975Z,16.33
2022-11-26T01:34:21.063Z,15.70
2022-11-26T01:39:19.861Z,23.75
2022-11-26T01:42:02.778Z,9.88
2022-11-26T01:44:33.565Z,17.23
2022-11-26T01:47:02.015Z,17.63
2022-11-26T01:49:33.401Z,16.55
2022-11-26T01:52:07.207Z,18.50
2022-11-26T01:54:38.213Z,20.70
2022-11-26T01:57:23.077Z,14.15
2022-11-26T02:00:01.550Z,10.70
2022-11-26T02:02:29.982Z,17.83
2022-11-26T02:04:58.125Z,13.52
2022-11-26T02:09:54.116Z,20.08
2022-11-26T02:12:22.196Z,16.98
2022-11-26T02:17:48.490Z,21.10
2022-11-26T02:20:51.067Z,23.13
2022-11-26T02:23:34.948Z,13.52
2022-11-26T02:26:27.788Z,22.73
2022-11-26T02:29:52.613Z,29.17
2022-11-26T02:32:28.944Z,11.48
2022-11-26T02:35:16.368Z,23.50
2022-11-26T02:37:52.918Z,14.82
2022-11-26T02:40:21.024Z,22.77
2022-11-26T02:42:48.998Z,15.23
2022-11-26T02:45:25.153Z,12.05
2022-11-26T02:47:56.360Z,21.60
2022-11-26T02:50:33.253Z,26.90
2022-11-26T02:53:01.863Z,14.32
2022-11-26T02:55:35.774Z,26.90
2022-11-26T02:58:06.296Z,19.27
2022-11-26T03:00:39.451Z,22.80
2022-11-26T03:03:23.959Z,24.20
2022-11-26T03:05:55.529Z,26.75
2022-11-26T03:08:25.007Z,19.42
2022-11-26T03:10:53.331Z,15.75
2022-11-26T03:13:20.945Z,27.92
2022-11-26T03:15:51.785Z,17.40
2022-11-26T03:18:19.922Z,19.65
2022-11-26T03:20:50.074Z,21.85
2022-11-26T03:23:20.301Z,13.48
2022-11-26T03:25:49.861Z,20.38
2022-11-26T03:30:44.770Z,14.40
2022-11-26T03:33:12.918Z,15.88
2022-11-26T03:35:40.356Z,15.23
2022-11-26T03:38:10.428Z,13.98
2022-11-26T03:40:39.094Z,21.00
2022-11-26T03:43:07.216Z,15.05
2022-11-26T03:48:04.141Z,15.25
2022-11-26T03:50:32.107Z,15.57
2022-11-26T03:53:00.319Z,20.63
2022-11-26T03:55:28.469Z,16.33
2022-11-26T04:00:25.351Z,33.78
2022-11-26T04:02:53.511Z,22.10
2022-11-26T04:05:23.271Z,25.13
2022-11-26T04:07:51.652Z,19.27
2022-11-26T04:10:20.780Z,17.52
2022-11-26T04:12:48.723Z,20.05
2022-11-26T04:15:20.004Z,21.38
2022-11-26T04:17:48.382Z,21.85
2022-11-26T04:20:16.646Z,17.15
2022-11-26T04:22:44.580Z,15.55
2022-11-26T04:25:12.289Z,17.00
2022-11-26T04:27:40.751Z,17.75
2022-11-26T04:30:09.433Z,21.90
2022-11-26T04:32:40.088Z,23.75
2022-11-26T04:35:08.772Z,23.48
2022-11-26T04:37:36.403Z,19.08
2022-11-26T04:40:06.135Z,16.08
2022-11-26T04:42:33.654Z,36.85
2022-11-26T04:45:02.670Z,27.15
2022-11-26T04:47:30.369Z,16.42
2022-11-26T04:49:58.535Z,19.83
2022-11-26T04:52:27.417Z,32.42
2022-11-26T04:54:56.158Z,23.13
2022-11-26T04:57:26.491Z,20.60
2022-11-26T04:59:54.081Z,21.33
2022-11-26T05:02:22.285Z,15.10
2022-11-26T05:07:18.172Z,24.20
2022-11-26T05:09:46.156Z,18.85
2022-11-26T05:12:14.324Z,24.25
2022-11-26T05:14:41.817Z,16.27
2022-11-26T05:17:09.442Z,25.73
2022-11-26T05:19:37.819Z,19.45
2022-11-26T05:22:05.604Z,24.75
2022-11-26T05:24:33.591Z,17.45
2022-11-26T05:27:01.152Z,21.55
2022-11-26T05:29:28.938Z,23.40
2022-11-26T05:31:56.875Z,28.77
2022-11-26T05:36:51.872Z,23.25
2022-11-26T05:39:21.130Z,24.17
2022-11-26T05:44:19.108Z,21.92
2022-11-26T05:46:46.726Z,24.42
2022-11-26T05:49:14.335Z,20.60
2022-11-26T05:51:41.940Z,22.73
2022-11-26T05:54:14.117Z,24.27
2022-11-26T05:56:43.009Z,17.45
2022-11-26T05:59:12.242Z,33.08
2022-11-26T06:01:40.152Z,35.83
2022-11-26T06:04:07.813Z,28.02
2022-11-26T06:06:35.906Z,32.53
2022-11-26T06:09:05.057Z,37.80
2022-11-26T06:11:32.882Z,36.13
2022-11-26T06:14:00.952Z,23.55
2022-11-26T06:16:28.634Z,33.95
2022-11-26T06:18:56.879Z,21.20
2022-11-26T06:21:25.837Z,24.63
2022-11-26T06:23:59.374Z,29.00
2022-11-26T06:26:29.122Z,31.90
2022-11-26T06:28:57.156Z,25.95
2022-11-26T06:31:24.693Z,24.52
2022-11-26T06:33:56.461Z,29.88
2022-11-26T06:36:24.634Z,33.85
2022-11-26T06:38:53.600Z,31.90
2022-11-26T06:41:21.669Z,29.58
2022-11-26T06:43:49.682Z,23.92
2022-11-26T06:48:45.370Z,33.80
2022-11-26T06:51:15.919Z,36.78
2022-11-26T06:53:43.742Z,39.97
2022-11-26T06:56:18.042Z,32.60
2022-11-26T06:58:50.601Z,33.50
2022-11-26T07:01:22.844Z,36.30
2022-11-26T07:03:51.000Z,27.10
2022-11-26T07:06:32.356Z,29.23
2022-11-26T07:09:06.429Z,24.33
2022-11-26T07:11:34.908Z,32.90
2022-11-26T07:14:03.769Z,25.45
2022-11-26T07:16:31.892Z,29.73
2022-11-26T07:19:03.029Z,28.17
2022-11-26T07:21:31.459Z,23.30
2022-11-26T07:24:02.461Z,30.13
2022-11-26T07:26:32.669Z,36.13
2022-11-26T07:29:02.137Z,31.20
2022-11-26T07:31:30.315Z,44.70
2022-11-26T07:33:58.720Z,26.40
2022-11-26T07:36:30.491Z,25.50
2022-11-26T07:39:02.127Z,21.00
2022-11-26T07:41:31.454Z,24.83
2022-11-26T07:44:00.904Z,25.33
2022-11-26T07:46:29.323Z,34.50
2022-11-26T07:48:57.558Z,26.90
2022-11-26T07:51:29.446Z,25.00
2022-11-26T07:53:58.671Z,29.88
2022-11-26T07:56:27.454Z,20.67
2022-11-26T07:58:55.638Z,30.90
2022-11-26T08:03:53.933Z,26.83
2022-11-26T08:06:24.154Z,27.67
2022-11-26T08:08:52.460Z,32.33
2022-11-26T08:13:55.115Z,32.85
2022-11-26T08:16:23.421Z,24.83
2022-11-26T08:18:55.592Z,22.85
2022-11-26T08:21:26.277Z,24.33
2022-11-26T08:23:54.750Z,23.90
2022-11-26T08:26:30.679Z,26.88
2022-11-26T08:29:04.386Z,35.70
2022-11-26T08:31:32.352Z,25.02
2022-11-26T08:34:02.154Z,28.33
2022-11-26T08:36:31.906Z,28.55
2022-11-26T08:39:01.032Z,27.90
2022-11-26T08:41:33.239Z,19.75
2022-11-26T08:44:07.111Z,32.20
2022-11-26T08:46:37.541Z,26.48
2022-11-26T08:49:06.156Z,18.33
2022-11-26T08:51:35.155Z,25.95
2022-11-26T08:54:03.356Z,21.98
2022-11-26T08:58:59.445Z,25.40
2022-11-26T09:01:30.464Z,17.75
2022-11-26T09:04:00.637Z,30.35
2022-11-26T09:06:33.351Z,24.60
2022-11-26T09:09:17.159Z,24.67
2022-11-26T09:11:54.578Z,27.30
2022-11-26T09:14:27.481Z,22.02
2022-11-26T09:16:57.468Z,18.67
2022-11-26T09:19:25.895Z,31.90
2022-11-26T09:21:54.315Z,24.95
2022-11-26T09:26:52.060Z,25.33
2022-11-26T09:29:21.671Z,22.80
2022-11-26T09:34:40.161Z,22.40
2022-11-26T09:37:08.728Z,20.27
2022-11-26T09:39:36.956Z,18.75
2022-11-26T09:45:00.726Z,36.88
2022-11-26T09:47:38.404Z,16.13
2022-11-26T09:50:14.853Z,27.20
2022-11-26T09:53:06.667Z,23.63
2022-11-26T09:55:38.993Z,23.35
2022-11-26T09:58:45.346Z,23.80
2022-11-26T10:01:18.876Z,22.30
2022-11-26T10:03:47.153Z,14.73
2022-11-26T10:06:56.995Z,16.45
2022-11-26T10:09:50.184Z,24.30
2022-11-26T10:13:11.181Z,19.10
2022-11-26T10:15:56.278Z,18.30
2022-11-26T10:18:48.501Z,25.87
2022-11-26T10:21:27.213Z,18.20
2022-11-26T10:24:01.135Z,24.98
2022-11-26T10:26:39.847Z,28.33
2022-11-26T10:29:26.396Z,26.15
2022-11-26T10:32:21.226Z,24.27
2022-11-26T10:35:01.211Z,20.58
2022-11-26T10:37:30.500Z,27.80
2022-11-26T10:40:25.682Z,18.60
2022-11-26T10:43:12.400Z,15.68
2022-11-26T10:45:50.176Z,24.73
2022-11-26T10:48:30.288Z,22.38
2022-11-26T10:51:21.245Z,19.60
2022-11-26T10:53:58.678Z,24.92
2022-11-26T10:56:36.927Z,27.00
2022-11-26T10:59:18.639Z,30.08
2022-11-26T11:01:51.691Z,22.90
2022-11-26T11:04:33.965Z,20.10
2022-11-26T11:09:47.517Z,25.25
2022-11-26T11:12:25.775Z,19.38
2022-11-26T11:14:55.652Z,15.95
2022-11-26T11:17:31.042Z,14.65
2022-11-26T11:20:06.426Z,22.52
2022-11-26T11:22:36.709Z,25.67
2022-11-26T11:25:22.680Z,29.00
2022-11-26T11:27:55.354Z,18.75
2022-11-26T11:30:32.610Z,26.05
2022-11-26T11:33:23.008Z,18.80
2022-11-26T11:36:25.288Z,18.17
2022-11-26T11:39:00.093Z,15.05
2022-11-26T11:41:45.830Z,25.55
2022-11-26T11:44:22.466Z,24.67
2022-11-26T11:47:06.813Z,21.83
2022-11-26T11:53:01.496Z,17.80
2022-11-26T11:55:31.292Z,21.88
2022-11-26T11:58:26.122Z,27.00
2022-11-26T12:01:07.519Z,18.80
2022-11-26T12:04:20.299Z,36.85
2022-11-26T12:07:18.927Z,25.15
2022-11-26T12:10:31.013Z,16.67
2022-11-26T12:13:08.344Z,16.23
2022-11-26T12:15:37.564Z,21.02
2022-11-26T12:18:20.313Z,15.57
2022-11-26T12:20:56.240Z,16.42
2022-11-26T12:23:48.652Z,23.75
2022-11-26T12:26:51.751Z,26.38
2022-11-26T12:29:23.110Z,18.70
2022-11-26T12:31:55.363Z,28.75
2022-11-26T12:34:42.338Z,17.92
2022-11-26T12:37:36.752Z,19.30
2022-11-26T12:40:38.374Z,23.52
2022-11-26T12:43:30.523Z,17.55
2022-11-26T12:46:21.075Z,19.63
2022-11-26T12:49:01.731Z,23.52
2022-11-26T12:51:48.204Z,20.75
2022-11-26T12:54:49.372Z,16.52
2022-11-26T12:57:33.219Z,23.33
2022-11-26T13:00:25.037Z,20.77
2022-11-26T13:02:54.341Z,17.02
2022-11-26T13:06:03.061Z,16.67
2022-11-26T13:08:48.754Z,20.77
2022-11-26T13:11:35.149Z,13.20
2022-11-26T13:14:17.652Z,17.40
2022-11-26T13:17:03.670Z,23.20
2022-11-26T13:19:56.972Z,21.77
2022-11-26T13:23:01.040Z,14.18
2022-11-26T13:26:05.980Z,14.43
2022-11-26T13:28:52.033Z,20.08
2022-11-26T13:31:23.669Z,18.73
2022-11-26T13:34:15.229Z,18.90
2022-11-26T13:37:15.779Z,24.25
2022-11-26T13:40:02.812Z,25.27
2022-11-26T13:43:19.293Z,16.23
2022-11-26T13:46:08.948Z,23.67
2022-11-26T13:49:15.209Z,12.52
2022-11-26T13:51:49.963Z,17.17
2022-11-26T13:54:32.419Z,25.98
2022-11-26T13:57:12.881Z,13.35
2022-11-26T14:00:01.537Z,25.83
2022-11-26T14:02:38.265Z,20.70
2022-11-26T14:05:08.058Z,23.48
2022-11-26T14:07:36.220Z,17.60
2022-11-26T14:10:08.862Z,19.98
2022-11-26T14:13:01.893Z,20.77
2022-11-26T14:15:42.220Z,19.13
2022-11-26T14:18:16.376Z,14.88
2022-11-26T14:21:07.480Z,15.73
2022-11-26T14:23:42.883Z,17.40
2022-11-26T14:26:30.103Z,24.55
2022-11-26T14:29:08.160Z,15.55
2022-11-26T14:34:18.242Z,12.80
2022-11-26T14:37:03.293Z,19.65
2022-11-26T14:39:32.032Z,20.88
2022-11-26T14:42:05.756Z,11.68
2022-11-26T14:44:35.447Z,24.38
2022-11-26T14:47:14.835Z,17.10
2022-11-26T14:49:50.066Z,23.60
2022-11-26T14:52:20.040Z,18.05
2022-11-26T14:54:54.286Z,14.63
2022-11-26T14:57:47.223Z,23.30
2022-11-26T15:00:14.971Z,16.27
2022-11-26T15:02:49.059Z,16.77
2022-11-26T15:05:24.300Z,24.05
2022-11-26T15:08:05.258Z,22.52
2022-11-26T15:10:54.116Z,17.88
2022-11-26T15:13:36.857Z,12.68
2022-11-26T15:16:27.773Z,14.25
2022-11-26T15:18:56.729Z,15.70
2022-11-26T15:21:27.980Z,19.77
2022-11-26T15:23:59.629Z,16.90
2022-11-26T15:26:33.710Z,15.63
2022-11-26T15:29:02.029Z,12.45
2022-11-26T15:31:42.381Z,15.65
2022-11-26T15:34:14.065Z,20.77
2022-11-26T15:36:41.726Z,15.93
2022-11-26T15:39:24.942Z,17.70
2022-11-26T15:41:55.021Z,17.15
2022-11-26T15:44:28.262Z,23.00
2022-11-26T15:47:00.323Z,14.85
2022-11-26T15:49:34.906Z,17.20
2022-11-26T15:52:09.866Z,12.88
2022-11-26T15:57:37.508Z,15.18
2022-11-26T16:00:21.161Z,20.17
2022-11-26T16:02:49.699Z,15.15
2022-11-26T16:05:41.036Z,14.13
2022-11-26T16:08:30.996Z,18.65
2022-11-26T16:11:23.725Z,11.52
2022-11-26T16:13:51.878Z,13.65
2022-11-26T16:16:24.316Z,13.25
2022-11-26T16:19:00.345Z,9.55
2022-11-26T16:21:33.580Z,14.43
2022-11-26T16:24:07.729Z,12.27
2022-11-26T16:27:05.094Z,12.77
2022-11-26T16:29:36.117Z,15.38
2022-11-26T16:32:04.539Z,12.18
2022-11-26T16:34:32.831Z,10.00
2022-11-26T16:37:18.122Z,11.75
2022-11-26T16:39:46.548Z,13.27
2022-11-26T16:42:23.835Z,15.40
2022-11-26T16:44:53.072Z,8.80
2022-11-26T16:47:35.238Z,11.45
2022-11-26T16:50:04.399Z,12.45
2022-11-26T16:52:39.311Z,19.73
2022-11-26T16:55:07.794Z,17.55
2022-11-26T16:57:37.219Z,19.27
2022-11-26T17:00:08.750Z,11.38
2022-11-26T17:02:38.907Z,12.32
2022-11-26T17:05:07.071Z,15.52
2022-11-26T17:10:25.323Z,12.18
2022-11-26T17:12:53.508Z,10.48
2022-11-26T17:17:53.599Z,9.68
2022-11-26T17:20:26.756Z,12.55
2022-11-26T17:22:55.149Z,10.73
2022-11-26T17:27:55.972Z,8.50
2022-11-26T17:30:27.575Z,9.80
2022-11-26T17:32:56.695Z,13.10
2022-11-26T17:35:25.406Z,14.85
2022-11-26T17:37:55.008Z,11.10
2022-11-26T17:40:25.174Z,8.52
2022-11-26T17:42:55.826Z,8.88
2022-11-26T17:45:23.913Z,9.88
2022-11-26T17:47:52.960Z,11.50
2022-11-26T17:50:26.936Z,14.13
2022-11-26T17:52:56.262Z,20.60
2022-11-26T17:55:27.455Z,12.70
2022-11-26T17:57:56.288Z,11.35
2022-11-26T18:00:28.465Z,7.07
2022-11-26T18:02:57.660Z,8.95
2022-11-26T18:05:26.080Z,9.32
2022-11-26T18:07:54.148Z,8.23
2022-11-26T18:10:23.264Z,8.32
2022-11-26T18:12:56.889Z,8.55
2022-11-26T18:15:26.820Z,8.30
2022-11-26T18:17:56.319Z,11.13
2022-11-26T18:20:27.885Z,12.45
2022-11-26T18:22:57.672Z,9.20
2022-11-26T18:25:30.243Z,8.90
2022-11-26T18:27:59.181Z,11.30
2022-11-26T18:30:30.693Z,9.05
2022-11-26T18:33:02.054Z,10.70
2022-11-26T18:35:30.673Z,9.25
2022-11-26T18:37:59.424Z,11.07
2022-11-26T18:40:27.792Z,15.52
2022-11-26T18:42:55.570Z,14.50
2022-11-26T18:45:23.228Z,14.40
2022-11-26T18:47:53.409Z,7.97
2022-11-26T18:50:22.743Z,13.68
2022-11-26T18:52:51.712Z,12.43
2022-11-26T18:55:19.862Z,13.25
2022-11-26T19:00:26.316Z,13.00
2022-11-26T19:02:55.543Z,12.07
2022-11-26T19:05:23.202Z,7.88
2022-11-26T19:07:52.019Z,18.20
2022-11-26T19:10:21.349Z,13.20
2022-11-26T19:12:49.451Z,6.75
2022-11-26T19:18:15.841Z,10.13
2022-11-26T19:20:53.235Z,12.20
2022-11-26T19:23:24.449Z,11.65
2022-11-26T19:25:52.662Z,6.55
2022-11-26T19:28:21.248Z,8.70
2022-11-26T19:30:58.998Z,12.27
2022-11-26T19:33:27.749Z,10.57
2022-11-26T19:35:56.027Z,9.25
2022-11-26T19:38:25.435Z,13.60
2022-11-26T19:40:58.792Z,10.50
2022-11-26T19:43:28.565Z,14.32
2022-11-26T19:46:23.890Z,11.82
2022-11-26T19:48:54.734Z,11.60
2022-11-26T19:51:24.390Z,15.85
2022-11-26T19:53:53.232Z,12.45
2022-11-26T19:56:30.601Z,17.45
2022-11-26T19:58:59.157Z,10.32
2022-11-26T20:01:30.681Z,11.63
2022-11-26T20:04:04.715Z,12.88
2022-11-26T20:06:34.506Z,11.50
2022-11-26T20:09:04.886Z,17.20
2022-11-26T20:11:33.514Z,13.35
2022-11-26T20:14:03.560Z,13.30
2022-11-26T20:16:32.612Z,12.43
2022-11-26T20:19:01.908Z,11.13
2022-11-26T20:21:33.001Z,7.85
2022-11-26T20:24:03.787Z,11.45
2022-11-26T20:26:34.408Z,15.63
2022-11-26T20:29:04.949Z,15.65
2022-11-26T20:31:33.062Z,14.65
2022-11-26T20:34:04.793Z,8.98
2022-11-26T20:36:33.041Z,13.73
2022-11-26T20:39:02.316Z,13.35
2022-11-26T20:41:31.029Z,8.95
2022-11-26T20:43:59.854Z,8.43
2022-11-26T20:46:30.389Z,12.95
2022-11-26T20:48:58.922Z,10.68
2022-11-26T20:51:27.585Z,9.32
2022-11-26T20:54:02.565Z,16.95
2022-11-26T20:56:30.950Z,13.75
2022-11-26T20:58:59.551Z,9.68
2022-11-26T21:01:28.936Z,8.15
2022-11-26T21:03:58.531Z,15.00
2022-11-26T21:06:30.565Z,12.38
2022-11-26T21:09:04.517Z,7.88
2022-11-26T21:11:34.110Z,8.60
2022-11-26T21:14:02.879Z,11.63
2022-11-26T21:16:31.054Z,8.00
2022-11-26T21:19:00.705Z,12.23
2022-11-26T21:21:31.958Z,7.53
2022-11-26T21:24:00.158Z,15.20
2022-11-26T21:26:27.847Z,17.13
2022-11-26T21:29:00.022Z,10.27
2022-11-26T21:31:31.044Z,7.45
2022-11-26T21:34:02.504Z,10.65
2022-11-26T21:36:32.130Z,9.50
2022-11-26T21:39:00.485Z,12.43
2022-11-26T21:41:28.768Z,7.45
2022-11-26T21:44:02.463Z,11.25
2022-11-26T21:46:36.323Z,12.88
2022-11-26T21:49:06.686Z,10.85
2022-11-26T21:51:34.868Z,10.57
2022-11-26T21:56:31.773Z,5.30
2022-11-26T21:59:01.957Z,11.05
2022-11-26T22:01:32.583Z,9.23
2022-11-26T22:04:02.236Z,5.88
2022-11-26T22:06:31.269Z,7.50
2022-11-26T22:08:59.518Z,9.40
2022-11-26T22:11:31.124Z,7.68
2022-11-26T22:14:00.413Z,6.25
2022-11-26T22:16:29.739Z,4.68
2022-11-26T22:18:58.972Z,7.20
2022-11-26T22:21:38.863Z,5.75
2022-11-26T22:24:10.437Z,6.57
2022-11-26T22:26:38.595Z,7.45
2022-11-26T22:29:06.910Z,5.53
2022-11-26T22:31:38.875Z,5.65
2022-11-26T22:34:18.607Z,3.70
2022-11-26T22:36:47.054Z,6.13
2022-11-26T22:39:15.995Z,21.23
2022-11-26T22:41:45.359Z,4.38
2022-11-26T22:44:16.832Z,3.67
2022-11-26T22:46:47.032Z,4.47
2022-11-26T22:49:21.251Z,15.18
2022-11-26T22:51:51.514Z,3.88
2022-11-26T22:54:19.887Z,3.92
2022-11-26T22:56:48.437Z,8.80
2022-11-26T22:59:16.474Z,9.98
2022-11-26T23:01:44.474Z,2.47
2022-11-26T23:04:15.487Z,4.57
2022-11-26T23:06:44.800Z,3.10
2022-11-26T23:09:14.890Z,51.42
2022-11-26T23:11:45.666Z,5.95
2022-11-26T23:14:13.538Z,3.95
2022-11-26T23:16:43.059Z,4.10
2022-11-26T23:19:16.808Z,5.55
2022-11-26T23:21:47.297Z,7.22
2022-11-26T23:24:17.379Z,3.75
2022-11-26T23:26:46.749Z,3.38
2022-11-26T23:29:20.716Z,3.30
2022-11-26T23:31:50.436Z,18.38
2022-11-26T23:34:18.385Z,3.60
2022-11-26T23:36:46.843Z,3.00
2022-11-26T23:39:17.789Z,1.92
2022-11-26T23:41:45.376Z,3.70
2022-11-26T23:44:16.185Z,4.25
2022-11-26T23:46:51.355Z,5.45
2022-11-26T23:49:20.425Z,3.38
2022-11-26T23:51:53.716Z,4.30
2022-11-26T23:54:24.178Z,3.65
2022-11-26T23:56:52.219Z,9.27
